Aérodrome :
LOGIN :

S'inscrire | Disclaimer

   EN    FR    IT 

 










Légende :    VFR   VFR Marginal   IFR   IFR Intensif   IFR Très Intensif
Visi : 
Plafond : 
>= 8 km
>= 3000ft
5 à 8 km
1000 à 3000 ft
1500m à 5 km
500 à 1000 ft
800 à 1500m
200 à 500 ft
< 800m
< 200 ft
Symboles :   Orages  Brouillard  Fortes neiges  Fortes précipitations  Vent > 20 kt
SIGMETs :   Divers  Orages  Givrage  Turbulence  Onde Orograph.  Cendres Volcan.






- Altitude de l'aérodrome : 1058 ft
- Code IATA : SCN


EDDR - Saarbrücken

DERNIER METAR :
  • 251950Z AUTO 27009KT CAVOK 16/07 Q1020 NOSIG

METARs EXPIRÉS :
  • 251920Z AUTO 28008KT CAVOK 16/07 Q1019 NOSIG
  • 251850Z AUTO 26009KT CAVOK 16/07 Q1019 NOSIG
  • 251820Z AUTO 27010KT CAVOK 17/07 Q1019 NOSIG
  • 251750Z AUTO 27011KT CAVOK 18/07 Q1019 NOSIG
  • 251720Z AUTO 27011KT CAVOK 18/07 Q1018 NOSIG

TAF TAF EDDR
Valide du 25 à 18h jusqu'au 26 à 18h UTC


251700Z 2518/2618 26010KT 9999 FEW045
PROB30
TEMPO 2605/2609 BKN014



MET'MAP, la Météo Aéronautique d'un coup d'oeil ! - Copyright ORBIFLY Décembre 2007 - Disclaimer

ORBIFLY MET'MAP TEAM :

Programmation & Développement : Alexandra Zaïnal
Sur une idée originale de : Baudouin d'Aumeries
Soutien technique & logistique : Manuel Goepfert
Assistance : Marc-Olivier Méhu

Contact : metmap@orbifly.com




SOURCES & CREDITS :

   NOAA